Parkerton, Wyoming
Current Conditions -  °F | °C
As of 6:53 AM on Monday 24 Nov 2014 (Local Time) from KCPR Reporting Station
Broken Clouds Broken Clouds  
Wind Chill: 15°   Ceiling: 11000
Heat Index: 26°   Visibility: 10mi
Dew Point: 15°   Wind: 13mph
Humidity: 63%   Direction: 290°WNW
Pressure: 29.89"   Gusts: NA
Location:  43.0973°N, 105.88°W
Report Text: KCPR 241353Z 29011KT 10SM FEW070 SCT095 BKN110 M03/M09 A2989 RMK AO2 SLP155 T10331094
Loading
Personal Weather Stations






























Interactive Weather Map New forecast layout! Learn more

10-Day Weather Forecast

Advertisements
Track Severe Weather on mobile